createdAt,value
2018-04-22T00:00:07.668Z,31.93
2018-04-22T00:02:47.585Z,30.87
2018-04-22T00:05:26.064Z,37.17
2018-04-22T00:08:04.465Z,31.63
2018-04-22T00:10:43.967Z,34.40
2018-04-22T00:13:22.448Z,35.97
2018-04-22T00:16:01.047Z,30.77
2018-04-22T00:18:39.665Z,30.13
2018-04-22T00:21:17.878Z,35.30
2018-04-22T00:23:56.706Z,35.67
2018-04-22T00:26:35.872Z,31.00
2018-04-22T00:29:14.115Z,32.67
2018-04-22T00:31:52.552Z,30.43
2018-04-22T00:34:31.739Z,30.40
2018-04-22T00:37:10.235Z,34.17
2018-04-22T00:39:48.922Z,31.27
2018-04-22T00:42:27.644Z,30.27
2018-04-22T00:45:05.911Z,32.63
2018-04-22T00:47:44.250Z,38.00
2018-04-22T00:50:23.003Z,36.13
2018-04-22T00:53:01.188Z,31.43
2018-04-22T00:55:39.683Z,34.60
2018-04-22T00:58:23.088Z,34.80
2018-04-22T01:01:05.624Z,32.90
2018-04-22T01:03:43.478Z,37.10
2018-04-22T01:06:21.632Z,32.57
2018-04-22T01:09:04.368Z,33.77
2018-04-22T01:11:42.778Z,34.17
2018-04-22T01:14:21.619Z,33.70
2018-04-22T01:17:04.896Z,32.43
2018-04-22T01:19:44.224Z,31.87
2018-04-22T01:22:22.839Z,33.03
2018-04-22T01:25:01.212Z,33.47
2018-04-22T01:27:39.511Z,33.63
2018-04-22T01:30:18.585Z,33.53
2018-04-22T01:32:57.164Z,36.00
2018-04-22T01:35:35.390Z,32.43
2018-04-22T01:38:14.865Z,35.50
2018-04-22T01:40:52.984Z,32.73
2018-04-22T01:43:31.208Z,38.37
2018-04-22T01:46:10.567Z,35.23
2018-04-22T01:48:48.471Z,34.43
2018-04-22T01:51:26.391Z,31.90
2018-04-22T01:54:05.326Z,33.13
2018-04-22T01:56:44.495Z,33.17
2018-04-22T01:59:22.983Z,31.50
2018-04-22T02:02:01.896Z,33.17
2018-04-22T02:04:40.434Z,32.97
2018-04-22T02:07:18.578Z,37.30
2018-04-22T02:09:57.103Z,41.80
2018-04-22T02:12:35.959Z,37.70
2018-04-22T02:15:14.366Z,37.97
2018-04-22T02:17:53.599Z,33.90
2018-04-22T02:20:31.870Z,34.20
2018-04-22T02:23:10.174Z,38.90
2018-04-22T02:25:48.783Z,37.37
2018-04-22T02:28:27.156Z,38.40
2018-04-22T02:31:05.516Z,39.47
2018-04-22T02:33:44.070Z,34.53
2018-04-22T02:36:22.071Z,32.57
2018-04-22T02:39:00.330Z,38.27
2018-04-22T02:41:39.077Z,34.67
2018-04-22T02:44:17.889Z,35.53
2018-04-22T02:46:57.652Z,33.97
2018-04-22T02:49:36.083Z,34.73
2018-04-22T02:52:14.405Z,34.70
2018-04-22T02:54:53.385Z,32.40
2018-04-22T02:57:32.639Z,30.80
2018-04-22T03:00:10.876Z,36.93
2018-04-22T03:02:49.967Z,33.17
2018-04-22T03:05:28.674Z,35.97
2018-04-22T03:08:11.177Z,31.83
2018-04-22T03:10:49.331Z,32.07
2018-04-22T03:13:27.944Z,36.40
2018-04-22T03:16:07.032Z,37.40
2018-04-22T03:18:45.432Z,41.33
2018-04-22T03:21:24.537Z,35.40
2018-04-22T03:24:03.039Z,34.80
2018-04-22T03:26:42.025Z,36.33
2018-04-22T03:29:20.840Z,32.47
2018-04-22T03:31:59.059Z,30.30
2018-04-22T03:34:37.223Z,33.87
2018-04-22T03:37:16.868Z,34.00
2018-04-22T03:39:55.237Z,31.37
2018-04-22T03:42:34.211Z,32.33
2018-04-22T03:45:13.613Z,28.67
2018-04-22T03:47:51.913Z,30.70
2018-04-22T03:50:30.215Z,36.07
2018-04-22T03:53:08.520Z,35.73
2018-04-22T03:55:46.701Z,36.10
2018-04-22T03:58:24.919Z,39.00
2018-04-22T04:01:03.530Z,34.80
2018-04-22T04:03:42.565Z,40.20
2018-04-22T04:06:21.336Z,36.03
2018-04-22T04:09:00.213Z,35.13
2018-04-22T04:11:38.428Z,34.83
2018-04-22T04:14:17.512Z,32.37
2018-04-22T04:16:55.951Z,33.10
2018-04-22T04:20:53.766Z,30.80
2018-04-22T04:23:46.421Z,35.63
2018-04-22T04:27:39.597Z,32.93
2018-04-22T04:30:18.155Z,32.70
2018-04-22T04:32:57.444Z,36.90
2018-04-22T04:35:35.820Z,33.73
2018-04-22T04:38:14.130Z,33.10
2018-04-22T04:40:52.985Z,33.53
2018-04-22T04:43:32.328Z,34.57
2018-04-22T04:46:11.687Z,33.97
2018-04-22T04:48:50.061Z,39.63
2018-04-22T04:51:28.387Z,30.03
2018-04-22T04:54:07.095Z,31.67
2018-04-22T04:56:46.489Z,31.43
2018-04-22T04:59:25.044Z,29.23
2018-04-22T05:02:03.378Z,29.87
2018-04-22T05:04:42.199Z,28.90
2018-04-22T05:07:20.635Z,33.17
2018-04-22T05:09:59.165Z,29.70
2018-04-22T05:12:38.582Z,27.93
2018-04-22T05:15:16.766Z,28.20
2018-04-22T05:17:55.029Z,28.37
2018-04-22T05:20:33.334Z,30.77
2018-04-22T05:23:12.724Z,32.70
2018-04-22T05:25:51.830Z,30.03
2018-04-22T05:28:30.988Z,31.50
2018-04-22T05:31:09.383Z,33.23
2018-04-22T05:33:47.555Z,29.67
2018-04-22T05:36:27.071Z,32.27
2018-04-22T05:39:06.529Z,37.47
2018-04-22T05:41:45.016Z,33.57
2018-04-22T05:44:24.632Z,32.10
2018-04-22T05:47:03.785Z,33.47
2018-04-22T05:49:42.202Z,34.47
2018-04-22T05:52:20.907Z,29.10
2018-04-22T05:55:00.445Z,34.50
2018-04-22T05:57:38.600Z,31.43
2018-04-22T06:00:18.504Z,34.73
2018-04-22T06:02:57.865Z,31.67
2018-04-22T06:05:36.285Z,35.17
2018-04-22T06:08:18.159Z,31.93
2018-04-22T06:11:02.782Z,31.87
2018-04-22T06:13:41.814Z,31.47
2018-04-22T06:16:20.372Z,33.77
2018-04-22T06:18:59.768Z,33.80
2018-04-22T06:21:38.198Z,30.30
2018-04-22T06:24:19.109Z,31.50
2018-04-22T06:26:57.145Z,30.73
2018-04-22T06:29:36.471Z,35.27
2018-04-22T06:32:15.807Z,36.13
2018-04-22T06:34:54.694Z,31.90
2018-04-22T06:37:34.437Z,33.67
2018-04-22T06:40:13.469Z,33.43
2018-04-22T06:42:53.111Z,31.87
2018-04-22T06:45:31.728Z,35.73
2018-04-22T06:48:11.612Z,35.63
2018-04-22T06:50:52.523Z,34.97
2018-04-22T06:53:31.751Z,33.13
2018-04-22T06:56:10.072Z,34.07
2018-04-22T06:58:48.846Z,32.37
2018-04-22T07:01:27.599Z,33.70
2018-04-22T07:04:07.000Z,30.93
2018-04-22T07:06:45.516Z,38.67
2018-04-22T07:09:26.531Z,38.03
2018-04-22T07:12:04.969Z,35.53
2018-04-22T07:14:44.175Z,35.23
2018-04-22T07:17:25.563Z,39.13
2018-04-22T07:20:04.509Z,36.97
2018-04-22T07:22:43.327Z,37.97
2018-04-22T07:25:23.763Z,36.67
2018-04-22T07:28:02.839Z,36.13
2018-04-22T07:30:42.889Z,34.37
2018-04-22T07:33:22.796Z,36.07
2018-04-22T07:36:01.878Z,36.83
2018-04-22T07:38:41.522Z,39.50
2018-04-22T07:41:19.932Z,40.27
2018-04-22T07:43:59.556Z,34.23
2018-04-22T07:46:38.722Z,39.43
2018-04-22T07:49:17.548Z,34.77
2018-04-22T07:51:55.792Z,36.43
2018-04-22T07:54:35.382Z,36.90
2018-04-22T07:57:14.011Z,33.27
2018-04-22T07:59:52.571Z,34.77
2018-04-22T08:02:33.168Z,38.47
2018-04-22T08:05:12.241Z,36.20
2018-04-22T08:07:51.521Z,33.03
2018-04-22T08:10:32.408Z,37.30
2018-04-22T08:13:11.482Z,38.03
2018-04-22T08:15:49.531Z,35.97
2018-04-22T08:18:30.832Z,36.10
2018-04-22T08:21:13.914Z,34.43
2018-04-22T08:23:53.162Z,33.73
2018-04-22T08:26:33.819Z,34.20
2018-04-22T08:29:13.890Z,35.23
2018-04-22T08:31:52.272Z,36.73
2018-04-22T08:34:33.518Z,33.33
2018-04-22T08:37:11.703Z,33.83
2018-04-22T08:39:50.052Z,36.97
2018-04-22T08:42:28.687Z,35.67
2018-04-22T08:45:06.962Z,30.03
2018-04-22T08:47:46.192Z,29.73
2018-04-22T08:50:27.294Z,34.07
2018-04-22T08:53:05.420Z,30.13
2018-04-22T08:55:45.088Z,31.40
2018-04-22T08:58:23.882Z,30.40
2018-04-22T09:01:03.783Z,32.50
2018-04-22T09:03:42.171Z,32.17
2018-04-22T09:06:20.577Z,28.90
2018-04-22T09:08:59.757Z,33.90
2018-04-22T09:11:39.274Z,26.87
2018-04-22T09:14:21.394Z,26.83
2018-04-22T09:16:59.752Z,29.97
2018-04-22T09:19:43.276Z,26.57
2018-04-22T09:22:22.057Z,26.50
2018-04-22T09:25:00.964Z,25.10
2018-04-22T09:27:43.495Z,28.93
2018-04-22T09:30:22.844Z,24.73
2018-04-22T09:33:02.251Z,23.67
2018-04-22T09:35:42.821Z,22.90
2018-04-22T09:38:22.237Z,25.40
2018-04-22T09:41:00.933Z,27.47
2018-04-22T09:43:41.751Z,21.57
2018-04-22T09:46:19.920Z,20.20
2018-04-22T09:48:59.082Z,21.97
2018-04-22T09:51:39.370Z,24.00
2018-04-22T09:54:17.943Z,18.37
2018-04-22T09:56:57.991Z,16.30
2018-04-22T09:59:40.999Z,16.73
2018-04-22T10:02:23.691Z,20.07
2018-04-22T10:05:07.591Z,19.60
2018-04-22T10:07:47.448Z,17.43
2018-04-22T10:10:28.132Z,15.30
2018-04-22T10:13:06.967Z,17.30
2018-04-22T10:15:46.614Z,19.40
2018-04-22T10:18:27.088Z,18.07
2018-04-22T10:21:06.566Z,20.80
2018-04-22T10:23:49.665Z,18.13
2018-04-22T10:26:28.080Z,18.43
2018-04-22T10:29:07.524Z,17.97
2018-04-22T10:31:47.999Z,17.00
2018-04-22T10:34:27.715Z,17.20
2018-04-22T10:37:06.546Z,16.23
2018-04-22T10:39:47.254Z,16.63
2018-04-22T10:42:26.113Z,15.40
2018-04-22T10:45:04.484Z,17.00
2018-04-22T10:47:43.048Z,18.17
2018-04-22T10:50:21.950Z,13.00
2018-04-22T10:53:00.327Z,17.97
2018-04-22T10:55:39.628Z,11.83
2018-04-22T10:58:18.669Z,11.87
2018-04-22T11:00:57.645Z,11.97
2018-04-22T11:03:37.200Z,12.10
2018-04-22T11:06:15.241Z,12.57
2018-04-22T11:08:55.800Z,11.00
2018-04-22T11:11:34.257Z,9.90
2018-04-22T11:14:14.295Z,11.07
2018-04-22T11:16:56.803Z,15.40
2018-04-22T11:19:36.411Z,14.83
2018-04-22T11:22:14.958Z,12.80
2018-04-22T11:24:56.007Z,9.57
2018-04-22T11:27:34.759Z,15.13
2018-04-22T11:30:14.130Z,9.13
2018-04-22T11:32:53.960Z,11.87
2018-04-22T11:35:32.621Z,11.30
2018-04-22T11:38:11.783Z,10.77
2018-04-22T11:40:50.933Z,11.80
2018-04-22T11:43:29.266Z,15.27
2018-04-22T11:46:07.431Z,9.57
2018-04-22T11:48:45.820Z,9.97
2018-04-22T11:51:23.990Z,9.07
2018-04-22T11:54:01.933Z,13.37
2018-04-22T11:56:42.001Z,8.77
2018-04-22T11:59:20.347Z,10.17
2018-04-22T12:01:59.680Z,13.03
2018-04-22T12:04:38.233Z,11.43
2018-04-22T12:07:24.721Z,8.93
2018-04-22T12:10:02.768Z,11.13
2018-04-22T12:12:41.068Z,9.60
2018-04-22T12:15:27.547Z,9.37
2018-04-22T12:18:06.592Z,11.63
2018-04-22T12:20:45.680Z,8.17
2018-04-22T12:23:24.265Z,8.53
2018-04-22T12:26:02.535Z,11.37
2018-04-22T12:28:41.530Z,8.47
2018-04-22T12:31:32.236Z,8.53
2018-04-22T12:34:10.382Z,11.07
2018-04-22T12:36:49.212Z,8.70
2018-04-22T12:39:39.286Z,9.07
2018-04-22T12:42:20.215Z,9.13
2018-04-22T12:44:59.937Z,8.53
2018-04-22T12:47:39.943Z,8.33
2018-04-22T12:50:22.071Z,10.50
2018-04-22T12:53:09.142Z,7.57
2018-04-22T12:56:06.026Z,8.87
2018-04-22T13:01:49.661Z,10.27
2018-04-22T13:04:38.676Z,7.13
2018-04-22T13:07:17.537Z,11.37
2018-04-22T13:10:03.073Z,7.80
2018-04-22T13:12:45.913Z,7.93
2018-04-22T13:15:23.966Z,10.37
2018-04-22T13:18:02.758Z,7.70
2018-04-22T13:20:41.923Z,8.20
2018-04-22T13:23:20.133Z,8.97
2018-04-22T13:25:59.552Z,9.30
2018-04-22T13:28:47.519Z,7.10
2018-04-22T13:31:39.115Z,8.10
2018-04-22T13:34:17.979Z,7.83
2018-04-22T13:36:57.247Z,8.03
2018-04-22T13:39:36.390Z,8.17
2018-04-22T13:42:16.304Z,8.57
2018-04-22T13:44:55.374Z,9.77
2018-04-22T13:47:33.768Z,9.97
2018-04-22T13:50:25.247Z,9.57
2018-04-22T13:53:06.626Z,7.73
2018-04-22T13:55:45.548Z,9.97
2018-04-22T13:58:43.995Z,8.57
2018-04-22T14:01:22.804Z,9.33
2018-04-22T14:04:07.588Z,7.17
2018-04-22T14:06:46.205Z,8.47
2018-04-22T14:09:25.138Z,8.73
2018-04-22T14:12:04.056Z,7.10
2018-04-22T14:14:42.725Z,9.30
2018-04-22T14:17:21.248Z,10.37
2018-04-22T14:20:00.120Z,9.03
2018-04-22T14:22:38.142Z,10.07
2018-04-22T14:25:16.889Z,7.33
2018-04-22T14:27:55.092Z,6.70
2018-04-22T14:30:56.564Z,7.23
2018-04-22T14:33:36.099Z,7.00
2018-04-22T14:36:21.782Z,6.73
2018-04-22T14:39:00.872Z,6.70
2018-04-22T14:41:39.822Z,8.50
2018-04-22T14:46:26.612Z,7.77
2018-04-22T14:49:10.372Z,8.07
2018-04-22T14:51:49.290Z,8.43
2018-04-22T14:54:27.969Z,9.30
2018-04-22T14:57:06.478Z,9.07
2018-04-22T14:59:44.806Z,9.40
2018-04-22T15:02:23.021Z,19.37
2018-04-22T15:05:02.340Z,11.37
2018-04-22T15:07:52.918Z,11.33
2018-04-22T15:10:39.427Z,12.47
2018-04-22T15:13:17.649Z,11.17
2018-04-22T15:15:55.949Z,15.13
2018-04-22T15:18:34.408Z,19.67
2018-04-22T15:21:27.503Z,12.70
2018-04-22T15:24:05.668Z,8.97
2018-04-22T15:26:50.015Z,10.97
2018-04-22T15:29:28.457Z,10.60
2018-04-22T15:32:10.804Z,12.37
2018-04-22T15:34:52.819Z,13.80
2018-04-22T15:37:30.976Z,11.73
2018-04-22T15:40:09.522Z,7.27
2018-04-22T15:42:51.640Z,13.63
2018-04-22T15:45:32.676Z,7.20
2018-04-22T15:48:11.815Z,8.70
2018-04-22T15:50:53.132Z,36.40
2018-04-22T15:53:31.104Z,8.03
2018-04-22T15:56:17.993Z,12.17
2018-04-22T15:58:56.203Z,7.37
2018-04-22T16:01:45.905Z,9.90
2018-04-22T16:04:28.930Z,8.80
2018-04-22T16:07:08.056Z,9.67
2018-04-22T16:09:55.982Z,10.60
2018-04-22T16:12:33.927Z,11.37
2018-04-22T16:15:14.362Z,13.70
2018-04-22T16:18:04.081Z,8.80
2018-04-22T16:20:42.248Z,7.47
2018-04-22T16:23:22.452Z,8.17
2018-04-22T16:26:11.015Z,10.83
2018-04-22T16:28:50.806Z,8.47
2018-04-22T16:31:31.980Z,11.47
2018-04-22T16:34:10.308Z,11.47
2018-04-22T16:36:48.768Z,8.10
2018-04-22T16:39:33.709Z,8.27
2018-04-22T16:42:12.093Z,10.87
2018-04-22T16:44:55.140Z,12.37
2018-04-22T16:47:33.903Z,10.23
2018-04-22T16:50:12.360Z,9.00
2018-04-22T16:52:54.110Z,15.30
2018-04-22T16:55:33.031Z,11.13
2018-04-22T16:58:11.932Z,11.07
2018-04-22T17:00:51.994Z,8.70
2018-04-22T17:03:30.862Z,11.70
2018-04-22T17:06:12.286Z,10.50
2018-04-22T17:08:50.931Z,9.50
2018-04-22T17:11:30.266Z,10.47
2018-04-22T17:14:08.878Z,8.57
2018-04-22T17:16:48.161Z,8.37
2018-04-22T17:19:26.529Z,7.57
2018-04-22T17:22:04.851Z,8.50
2018-04-22T17:24:43.113Z,9.13
2018-04-22T17:27:22.089Z,9.47
2018-04-22T17:30:01.495Z,7.93
2018-04-22T17:32:39.847Z,7.87
2018-04-22T17:35:20.738Z,7.50
2018-04-22T17:37:58.978Z,9.57
2018-04-22T17:40:37.990Z,11.73
2018-04-22T17:43:19.158Z,10.13
2018-04-22T17:46:02.014Z,9.30
2018-04-22T17:48:41.306Z,8.77
2018-04-22T17:51:22.300Z,11.33
2018-04-22T17:54:01.405Z,8.70
2018-04-22T17:56:39.628Z,11.13
2018-04-22T17:59:18.090Z,9.70
2018-04-22T18:01:56.410Z,8.67
2018-04-22T18:04:34.765Z,13.93
2018-04-22T18:20:05.428Z,8.63
2018-04-22T18:22:44.658Z,10.90
2018-04-22T18:25:23.408Z,12.53
2018-04-22T18:28:03.535Z,8.17
2018-04-22T18:30:44.684Z,13.07
2018-04-22T18:33:27.976Z,8.43
2018-04-22T18:36:06.133Z,9.77
2018-04-22T18:38:46.092Z,9.63
2018-04-22T18:41:28.113Z,10.13
2018-04-22T18:44:06.332Z,11.00
2018-04-22T18:46:46.525Z,14.33
2018-04-22T18:49:24.977Z,23.80
2018-04-22T18:52:04.506Z,22.10
2018-04-22T18:54:44.071Z,18.80
2018-04-22T18:57:22.546Z,21.33
2018-04-22T19:00:01.218Z,17.93
2018-04-22T19:02:39.552Z,16.57
2018-04-22T19:05:18.062Z,13.07
2018-04-22T19:07:58.663Z,13.47
2018-04-22T19:10:38.530Z,12.93
2018-04-22T19:13:16.665Z,11.67
2018-04-22T19:15:55.862Z,13.57
2018-04-22T19:18:35.558Z,13.57
2018-04-22T19:21:14.318Z,15.13
2018-04-22T19:23:53.297Z,11.57
2018-04-22T19:26:37.985Z,14.77
2018-04-22T19:29:17.306Z,13.63
2018-04-22T19:31:57.579Z,12.17
2018-04-22T19:34:37.176Z,12.43
2018-04-22T19:37:15.548Z,10.37
2018-04-22T19:39:53.723Z,11.83
2018-04-22T19:42:32.235Z,17.93
2018-04-22T19:45:10.589Z,16.07
2018-04-22T19:47:49.227Z,13.23
2018-04-22T19:50:29.047Z,16.03
2018-04-22T19:53:08.903Z,16.53
2018-04-22T19:55:47.346Z,13.70
2018-04-22T19:58:25.889Z,17.50
2018-04-22T20:01:04.614Z,21.10
2018-04-22T20:03:42.900Z,18.07
2018-04-22T20:06:22.099Z,16.40
2018-04-22T20:09:00.821Z,12.83
2018-04-22T20:11:39.620Z,15.73
2018-04-22T20:14:19.981Z,12.50
2018-04-22T20:16:58.515Z,24.00
2018-04-22T20:19:36.954Z,15.13
2018-04-22T20:22:17.973Z,13.30
2018-04-22T20:24:56.293Z,18.27
2018-04-22T20:27:35.594Z,17.20
2018-04-22T20:30:14.639Z,15.57
2018-04-22T20:32:54.415Z,16.60
2018-04-22T20:35:32.947Z,16.13
2018-04-22T20:38:11.965Z,12.37
2018-04-22T20:40:51.027Z,14.07
2018-04-22T20:43:29.500Z,14.80
2018-04-22T20:46:08.181Z,16.23
2018-04-22T20:48:46.545Z,13.93
2018-04-22T20:51:25.503Z,13.83
2018-04-22T20:54:05.033Z,16.03
2018-04-22T20:56:44.091Z,14.93
2018-04-22T20:59:22.170Z,15.10
2018-04-22T21:02:02.605Z,17.77
2018-04-22T21:04:42.499Z,15.80
2018-04-22T21:07:20.622Z,14.70
2018-04-22T21:09:59.824Z,14.87
2018-04-22T21:12:43.941Z,14.30
2018-04-22T21:15:23.400Z,14.20
2018-04-22T21:18:03.058Z,15.00
2018-04-22T21:20:40.989Z,17.13
2018-04-22T21:23:19.286Z,19.17
2018-04-22T21:25:57.934Z,17.33
2018-04-22T21:28:36.063Z,16.43
2018-04-22T21:31:14.977Z,15.33
2018-04-22T21:33:53.240Z,16.17
2018-04-22T21:36:32.335Z,14.53
2018-04-22T21:39:10.614Z,15.83
2018-04-22T21:41:49.929Z,13.03
2018-04-22T21:44:28.249Z,17.00
2018-04-22T21:47:07.502Z,13.97
2018-04-22T21:49:47.674Z,13.30
2018-04-22T21:52:27.031Z,15.43
2018-04-22T21:55:06.015Z,16.03
2018-04-22T21:57:46.443Z,14.73
2018-04-22T22:00:26.123Z,14.60
2018-04-22T22:03:04.509Z,13.80
2018-04-22T22:05:43.767Z,15.50
2018-04-22T22:08:22.441Z,17.20
2018-04-22T22:11:00.756Z,13.73
2018-04-22T22:13:40.041Z,20.73
2018-04-22T22:16:18.542Z,16.60
2018-04-22T22:18:56.896Z,15.33
2018-04-22T22:21:35.677Z,15.80
2018-04-22T22:24:16.160Z,15.90
2018-04-22T22:26:55.243Z,13.90
2018-04-22T22:29:35.051Z,15.00
2018-04-22T22:32:14.650Z,18.17
2018-04-22T22:34:52.988Z,14.87
2018-04-22T22:37:33.121Z,14.77
2018-04-22T22:40:12.696Z,14.20
2018-04-22T22:42:52.718Z,14.23
2018-04-22T22:45:31.622Z,17.23
2018-04-22T22:48:10.063Z,17.03
2018-04-22T22:50:48.803Z,13.67
2018-04-22T22:53:27.157Z,17.37
2018-04-22T22:56:05.350Z,15.83
2018-04-22T22:58:44.215Z,14.37
2018-04-22T23:01:23.971Z,20.63
2018-04-22T23:04:02.936Z,16.10
2018-04-22T23:06:41.682Z,19.33
2018-04-22T23:09:19.993Z,18.00
2018-04-22T23:11:58.276Z,18.37
2018-04-22T23:14:39.250Z,18.97
2018-04-22T23:17:17.424Z,13.70
2018-04-22T23:19:56.282Z,15.80
2018-04-22T23:22:35.969Z,17.20
2018-04-22T23:25:14.458Z,16.50
2018-04-22T23:27:53.055Z,15.57
2018-04-22T23:30:31.644Z,15.23
2018-04-22T23:33:09.917Z,15.40
2018-04-22T23:35:48.801Z,18.83
2018-04-22T23:38:26.940Z,17.13
2018-04-22T23:41:05.218Z,15.00
2018-04-22T23:43:43.618Z,15.57
2018-04-22T23:46:24.639Z,15.40
2018-04-22T23:49:03.972Z,15.27
2018-04-22T23:51:42.514Z,19.07
2018-04-22T23:54:22.012Z,15.00
2018-04-22T23:57:00.673Z,19.73
2018-04-22T23:59:39.159Z,17.67
